sensor_id;sensor_type;location;lat;lon;timestamp;pressure;altitude;pressure_sealevel;temperature;humidity
58471;BME280;44258;51.288;12.068;2023-04-19T00:02:15;101465.81;;;9.12;64.03
58471;BME280;44258;51.288;12.068;2023-04-19T00:04:42;101465.66;;;8.87;64.57
58471;BME280;44258;51.288;12.068;2023-04-19T00:07:10;101471.09;;;8.86;64.62
58471;BME280;44258;51.288;12.068;2023-04-19T00:09:37;101468.78;;;8.44;65.37
58471;BME280;44258;51.288;12.068;2023-04-19T00:12:04;101459.91;;;8.42;65.02
58471;BME280;44258;51.288;12.068;2023-04-19T00:14:31;101458.69;;;8.52;64.28
58471;BME280;44258;51.288;12.068;2023-04-19T00:16:59;101449.84;;;8.19;64.93
58471;BME280;44258;51.288;12.068;2023-04-19T00:19:26;101453.22;;;8.25;64.85
58471;BME280;44258;51.288;12.068;2023-04-19T00:21:53;101450.25;;;8.34;64.47
58471;BME280;44258;51.288;12.068;2023-04-19T00:24:20;101446.38;;;8.76;63.27
58471;BME280;44258;51.288;12.068;2023-04-19T00:26:46;101448.97;;;8.49;63.92
58471;BME280;44258;51.288;12.068;2023-04-19T00:29:13;101446.88;;;8.28;64.03
58471;BME280;44258;51.288;12.068;2023-04-19T00:31:39;101449.19;;;8.42;64.05
58471;BME280;44258;51.288;12.068;2023-04-19T00:34:08;101448.38;;;8.38;63.78
58471;BME280;44258;51.288;12.068;2023-04-19T00:36:35;101450.84;;;8.46;63.70
58471;BME280;44258;51.288;12.068;2023-04-19T00:39:02;101449.03;;;8.15;63.88
58471;BME280;44258;51.288;12.068;2023-04-19T00:41:29;101450.22;;;8.05;63.79
58471;BME280;44258;51.288;12.068;2023-04-19T00:43:57;101458.94;;;8.13;63.25
58471;BME280;44258;51.288;12.068;2023-04-19T00:46:23;101451.72;;;8.15;62.75
58471;BME280;44258;51.288;12.068;2023-04-19T00:48:51;101446.53;;;8.09;62.43
58471;BME280;44258;51.288;12.068;2023-04-19T00:51:19;101457.03;;;7.84;63.41
58471;BME280;44258;51.288;12.068;2023-04-19T00:53:46;101456.53;;;7.68;63.51
58471;BME280;44258;51.288;12.068;2023-04-19T00:56:13;101451.44;;;7.57;64.14
58471;BME280;44258;51.288;12.068;2023-04-19T00:58:40;101455.91;;;7.58;63.64
58471;BME280;44258;51.288;12.068;2023-04-19T01:01:07;101448.44;;;7.69;63.29
58471;BME280;44258;51.288;12.068;2023-04-19T01:03:34;101446.91;;;7.61;63.38
58471;BME280;44258;51.288;12.068;2023-04-19T01:06:01;101451.31;;;7.27;64.16
58471;BME280;44258;51.288;12.068;2023-04-19T01:08:29;101446.06;;;7.23;64.24
58471;BME280;44258;51.288;12.068;2023-04-19T01:10:59;101444.22;;;7.61;63.14
58471;BME280;44258;51.288;12.068;2023-04-19T01:13:25;101441.53;;;7.61;63.26
58471;BME280;44258;51.288;12.068;2023-04-19T01:15:53;101457.16;;;7.06;64.95
58471;BME280;44258;51.288;12.068;2023-04-19T01:18:21;101450.44;;;6.47;66.44
58471;BME280;44258;51.288;12.068;2023-04-19T01:20:49;101450.16;;;6.60;66.87
58471;BME280;44258;51.288;12.068;2023-04-19T01:23:24;101448.13;;;6.72;66.29
58471;BME280;44258;51.288;12.068;2023-04-19T01:25:51;101445.75;;;6.99;65.68
58471;BME280;44258;51.288;12.068;2023-04-19T01:28:17;101448.81;;;6.82;66.38
58471;BME280;44258;51.288;12.068;2023-04-19T01:30:44;101449.03;;;6.71;66.48
58471;BME280;44258;51.288;12.068;2023-04-19T01:33:11;101447.84;;;6.86;66.17
58471;BME280;44258;51.288;12.068;2023-04-19T01:35:38;101441.56;;;6.47;67.54
58471;BME280;44258;51.288;12.068;2023-04-19T01:38:04;101437.78;;;6.56;67.18
58471;BME280;44258;51.288;12.068;2023-04-19T01:40:32;101434.19;;;6.99;65.74
58471;BME280;44258;51.288;12.068;2023-04-19T01:42:59;101440.44;;;6.96;65.95
58471;BME280;44258;51.288;12.068;2023-04-19T01:45:26;101442.50;;;6.85;66.14
58471;BME280;44258;51.288;12.068;2023-04-19T01:47:53;101436.88;;;6.97;65.60
58471;BME280;44258;51.288;12.068;2023-04-19T01:50:20;101442.22;;;6.97;65.49
58471;BME280;44258;51.288;12.068;2023-04-19T01:52:47;101438.88;;;6.47;67.54
58471;BME280;44258;51.288;12.068;2023-04-19T01:55:13;101431.72;;;6.47;67.50
58471;BME280;44258;51.288;12.068;2023-04-19T01:57:41;101436.75;;;6.21;68.39
58471;BME280;44258;51.288;12.068;2023-04-19T02:00:09;101443.88;;;6.20;68.65
58471;BME280;44258;51.288;12.068;2023-04-19T02:02:36;101445.16;;;6.46;67.76
58471;BME280;44258;51.288;12.068;2023-04-19T02:05:04;101434.28;;;6.53;67.59
58471;BME280;44258;51.288;12.068;2023-04-19T02:07:34;101434.53;;;5.98;69.89
58471;BME280;44258;51.288;12.068;2023-04-19T02:10:00;101434.41;;;6.04;70.12
58471;BME280;44258;51.288;12.068;2023-04-19T02:12:27;101445.84;;;6.10;69.19
58471;BME280;44258;51.288;12.068;2023-04-19T02:14:55;101436.81;;;6.19;68.65
58471;BME280;44258;51.288;12.068;2023-04-19T02:17:22;101441.34;;;6.12;69.88
58471;BME280;44258;51.288;12.068;2023-04-19T02:19:49;101436.56;;;6.30;69.52
58471;BME280;44258;51.288;12.068;2023-04-19T02:22:15;101448.72;;;6.45;68.90
58471;BME280;44258;51.288;12.068;2023-04-19T02:24:42;101445.50;;;6.71;68.00
58471;BME280;44258;51.288;12.068;2023-04-19T02:27:09;101433.41;;;6.92;67.78
58471;BME280;44258;51.288;12.068;2023-04-19T02:29:36;101438.56;;;6.62;68.49
58471;BME280;44258;51.288;12.068;2023-04-19T02:32:04;101431.28;;;6.27;69.34
58471;BME280;44258;51.288;12.068;2023-04-19T02:34:31;101444.97;;;6.11;70.03
58471;BME280;44258;51.288;12.068;2023-04-19T02:36:58;101438.50;;;5.75;70.93
58471;BME280;44258;51.288;12.068;2023-04-19T02:39:25;101433.91;;;5.83;71.10
58471;BME280;44258;51.288;12.068;2023-04-19T02:41:51;101432.94;;;5.87;70.89
58471;BME280;44258;51.288;12.068;2023-04-19T02:44:18;101433.66;;;5.97;70.53
58471;BME280;44258;51.288;12.068;2023-04-19T02:46:47;101434.56;;;5.96;70.05
58471;BME280;44258;51.288;12.068;2023-04-19T02:49:16;101427.72;;;5.81;70.68
58471;BME280;44258;51.288;12.068;2023-04-19T02:51:42;101430.41;;;5.78;71.10
58471;BME280;44258;51.288;12.068;2023-04-19T02:54:11;101429.88;;;6.09;69.24
58471;BME280;44258;51.288;12.068;2023-04-19T02:56:38;101431.91;;;5.96;70.11
58471;BME280;44258;51.288;12.068;2023-04-19T02:59:04;101421.75;;;5.67;71.54
58471;BME280;44258;51.288;12.068;2023-04-19T03:01:31;101422.78;;;6.08;69.90
58471;BME280;44258;51.288;12.068;2023-04-19T03:03:58;101424.56;;;5.58;70.97
58471;BME280;44258;51.288;12.068;2023-04-19T03:06:26;101427.22;;;5.59;70.96
58471;BME280;44258;51.288;12.068;2023-04-19T03:08:53;101424.00;;;5.40;71.26
58471;BME280;44258;51.288;12.068;2023-04-19T03:11:19;101426.56;;;5.46;70.89
58471;BME280;44258;51.288;12.068;2023-04-19T03:13:46;101424.72;;;5.50;70.85
58471;BME280;44258;51.288;12.068;2023-04-19T03:16:12;101420.06;;;5.10;71.60
58471;BME280;44258;51.288;12.068;2023-04-19T03:18:39;101414.31;;;5.33;69.87
58471;BME280;44258;51.288;12.068;2023-04-19T03:21:05;101415.06;;;5.41;69.10
58471;BME280;44258;51.288;12.068;2023-04-19T03:23:35;101408.31;;;5.22;69.41
58471;BME280;44258;51.288;12.068;2023-04-19T03:26:01;101414.19;;;5.42;68.75
58471;BME280;44258;51.288;12.068;2023-04-19T03:28:28;101408.03;;;5.37;68.42
58471;BME280;44258;51.288;12.068;2023-04-19T03:31:00;101406.44;;;5.27;67.71
58471;BME280;44258;51.288;12.068;2023-04-19T03:33:27;101412.06;;;5.61;66.99
58471;BME280;44258;51.288;12.068;2023-04-19T03:35:53;101409.78;;;5.40;67.07
58471;BME280;44258;51.288;12.068;2023-04-19T03:38:20;101404.41;;;5.41;67.08
58471;BME280;44258;51.288;12.068;2023-04-19T03:40:48;101407.34;;;5.26;66.79
58471;BME280;44258;51.288;12.068;2023-04-19T03:43:15;101402.84;;;5.78;65.23
58471;BME280;44258;51.288;12.068;2023-04-19T03:45:41;101398.06;;;4.94;66.94
58471;BME280;44258;51.288;12.068;2023-04-19T03:48:08;101404.63;;;5.29;65.55
58471;BME280;44258;51.288;12.068;2023-04-19T03:50:35;101401.19;;;5.22;66.43
58471;BME280;44258;51.288;12.068;2023-04-19T03:53:02;101398.38;;;5.30;66.05
58471;BME280;44258;51.288;12.068;2023-04-19T03:55:31;101406.16;;;5.44;65.11
58471;BME280;44258;51.288;12.068;2023-04-19T03:57:59;101404.69;;;5.26;64.99
58471;BME280;44258;51.288;12.068;2023-04-19T04:00:27;101406.06;;;4.94;65.52
58471;BME280;44258;51.288;12.068;2023-04-19T04:02:54;101406.31;;;4.79;65.89
58471;BME280;44258;51.288;12.068;2023-04-19T04:05:22;101411.03;;;4.58;65.75
58471;BME280;44258;51.288;12.068;2023-04-19T04:07:49;101400.44;;;5.14;64.77
58471;BME280;44258;51.288;12.068;2023-04-19T04:10:15;101400.19;;;4.70;65.45
58471;BME280;44258;51.288;12.068;2023-04-19T04:12:42;101395.50;;;4.89;64.74
58471;BME280;44258;51.288;12.068;2023-04-19T04:15:10;101402.19;;;4.56;65.19
58471;BME280;44258;51.288;12.068;2023-04-19T04:17:37;101402.19;;;4.56;64.78
58471;BME280;44258;51.288;12.068;2023-04-19T04:20:04;101401.19;;;4.65;64.22
58471;BME280;44258;51.288;12.068;2023-04-19T04:22:33;101406.22;;;4.85;63.82
58471;BME280;44258;51.288;12.068;2023-04-19T04:24:59;101406.94;;;4.34;64.89
58471;BME280;44258;51.288;12.068;2023-04-19T04:27:29;101394.84;;;4.73;64.58
58471;BME280;44258;51.288;12.068;2023-04-19T04:29:55;101401.19;;;5.21;62.59
58471;BME280;44258;51.288;12.068;2023-04-19T04:32:23;101400.34;;;5.19;62.77
58471;BME280;44258;51.288;12.068;2023-04-19T04:34:49;101406.50;;;5.22;62.55
58471;BME280;44258;51.288;12.068;2023-04-19T04:37:16;101399.28;;;5.29;62.18
58471;BME280;44258;51.288;12.068;2023-04-19T04:39:43;101401.19;;;5.21;61.82
58471;BME280;44258;51.288;12.068;2023-04-19T04:42:09;101400.25;;;5.25;61.84
58471;BME280;44258;51.288;12.068;2023-04-19T04:44:37;101395.06;;;5.16;62.09
58471;BME280;44258;51.288;12.068;2023-04-19T04:47:04;101401.66;;;4.93;62.40
58471;BME280;44258;51.288;12.068;2023-04-19T04:49:32;101398.81;;;5.04;62.31
58471;BME280;44258;51.288;12.068;2023-04-19T04:51:59;101405.25;;;5.45;61.03
58471;BME280;44258;51.288;12.068;2023-04-19T04:54:25;101403.63;;;5.34;61.63
58471;BME280;44258;51.288;12.068;2023-04-19T04:56:52;101402.56;;;5.45;61.34
58471;BME280;44258;51.288;12.068;2023-04-19T04:59:19;101398.78;;;5.58;60.92
58471;BME280;44258;51.288;12.068;2023-04-19T05:01:45;101396.63;;;5.29;61.82
58471;BME280;44258;51.288;12.068;2023-04-19T05:04:12;101393.94;;;5.30;61.23
58471;BME280;44258;51.288;12.068;2023-04-19T05:06:40;101392.03;;;5.37;60.80
58471;BME280;44258;51.288;12.068;2023-04-19T05:09:08;101395.63;;;5.34;61.24
58471;BME280;44258;51.288;12.068;2023-04-19T05:11:35;101392.16;;;5.29;61.18
58471;BME280;44258;51.288;12.068;2023-04-19T05:14:02;101394.69;;;5.39;61.14
58471;BME280;44258;51.288;12.068;2023-04-19T05:16:29;101390.72;;;5.61;60.85
58471;BME280;44258;51.288;12.068;2023-04-19T05:18:56;101394.06;;;5.23;60.66
58471;BME280;44258;51.288;12.068;2023-04-19T05:21:22;101409.81;;;5.38;60.71
58471;BME280;44258;51.288;12.068;2023-04-19T05:23:50;101407.78;;;5.00;61.45
58471;BME280;44258;51.288;12.068;2023-04-19T05:26:17;101403.75;;;5.27;61.62
58471;BME280;44258;51.288;12.068;2023-04-19T05:28:44;101398.06;;;5.48;61.30
58471;BME280;44258;51.288;12.068;2023-04-19T05:31:11;101402.91;;;5.23;61.18
58471;BME280;44258;51.288;12.068;2023-04-19T05:33:38;101405.22;;;4.90;61.39
58471;BME280;44258;51.288;12.068;2023-04-19T05:36:05;101396.44;;;4.87;62.21
58471;BME280;44258;51.288;12.068;2023-04-19T05:38:32;101401.91;;;5.32;60.92
58471;BME280;44258;51.288;12.068;2023-04-19T05:41:00;101401.06;;;5.78;59.91
58471;BME280;44258;51.288;12.068;2023-04-19T05:43:27;101397.16;;;5.49;60.20
58471;BME280;44258;51.288;12.068;2023-04-19T05:45:54;101392.31;;;5.70;58.54
58471;BME280;44258;51.288;12.068;2023-04-19T05:48:20;101395.53;;;5.41;59.12
58471;BME280;44258;51.288;12.068;2023-04-19T05:50:47;101399.81;;;5.49;59.12
58471;BME280;44258;51.288;12.068;2023-04-19T05:53:13;101396.91;;;5.62;58.61
58471;BME280;44258;51.288;12.068;2023-04-19T05:55:40;101399.53;;;5.65;58.28
58471;BME280;44258;51.288;12.068;2023-04-19T05:58:08;101399.63;;;5.60;58.45
58471;BME280;44258;51.288;12.068;2023-04-19T06:00:34;101396.06;;;5.60;58.23
58471;BME280;44258;51.288;12.068;2023-04-19T06:03:02;101400.44;;;5.64;58.58
58471;BME280;44258;51.288;12.068;2023-04-19T06:05:29;101398.78;;;5.58;58.45
58471;BME280;44258;51.288;12.068;2023-04-19T06:07:55;101399.19;;;5.35;58.20
58471;BME280;44258;51.288;12.068;2023-04-19T06:10:22;101397.41;;;5.82;58.07
58471;BME280;44258;51.288;12.068;2023-04-19T06:12:49;101396.69;;;5.74;58.30
58471;BME280;44258;51.288;12.068;2023-04-19T06:15:19;101403.34;;;6.00;57.16
58471;BME280;44258;51.288;12.068;2023-04-19T06:17:46;101402.50;;;5.98;55.78
58471;BME280;44258;51.288;12.068;2023-04-19T06:20:13;101392.00;;;5.87;56.17
58471;BME280;44258;51.288;12.068;2023-04-19T06:22:43;101399.94;;;5.93;56.40
58471;BME280;44258;51.288;12.068;2023-04-19T06:25:10;101390.47;;;5.73;56.47
58471;BME280;44258;51.288;12.068;2023-04-19T06:27:37;101398.47;;;5.75;56.43
58471;BME280;44258;51.288;12.068;2023-04-19T06:30:05;101400.91;;;5.87;56.68
58471;BME280;44258;51.288;12.068;2023-04-19T06:32:33;101397.66;;;6.17;56.46
58471;BME280;44258;51.288;12.068;2023-04-19T06:35:00;101403.47;;;5.93;56.25
58471;BME280;44258;51.288;12.068;2023-04-19T06:37:27;101395.75;;;6.23;55.29
58471;BME280;44258;51.288;12.068;2023-04-19T06:39:54;101397.53;;;5.76;55.14
58471;BME280;44258;51.288;12.068;2023-04-19T06:42:21;101403.06;;;6.15;55.21
58471;BME280;44258;51.288;12.068;2023-04-19T06:44:49;101401.50;;;6.03;54.70
58471;BME280;44258;51.288;12.068;2023-04-19T06:47:16;101409.53;;;6.02;53.65
58471;BME280;44258;51.288;12.068;2023-04-19T06:49:44;101405.22;;;5.94;54.19
58471;BME280;44258;51.288;12.068;2023-04-19T06:52:10;101399.41;;;6.19;53.20
58471;BME280;44258;51.288;12.068;2023-04-19T06:54:37;101395.06;;;6.13;53.17
58471;BME280;44258;51.288;12.068;2023-04-19T06:57:06;101403.13;;;6.54;52.61
58471;BME280;44258;51.288;12.068;2023-04-19T06:59:34;101405.78;;;6.54;51.99
58471;BME280;44258;51.288;12.068;2023-04-19T07:02:04;101397.78;;;6.91;50.96
58471;BME280;44258;51.288;12.068;2023-04-19T07:04:30;101395.09;;;6.93;51.42
58471;BME280;44258;51.288;12.068;2023-04-19T07:06:58;101403.31;;;6.84;51.77
58471;BME280;44258;51.288;12.068;2023-04-19T07:09:25;101388.78;;;6.58;52.10
58471;BME280;44258;51.288;12.068;2023-04-19T07:11:52;101387.72;;;6.64;50.85
58471;BME280;44258;51.288;12.068;2023-04-19T07:14:18;101385.41;;;6.06;51.03
58471;BME280;44258;51.288;12.068;2023-04-19T07:16:45;101384.03;;;5.85;53.32
58471;BME280;44258;51.288;12.068;2023-04-19T07:19:12;101372.88;;;6.89;52.20
58471;BME280;44258;51.288;12.068;2023-04-19T07:21:39;101379.59;;;7.07;51.08
58471;BME280;44258;51.288;12.068;2023-04-19T07:24:07;101379.13;;;6.51;51.58
58471;BME280;44258;51.288;12.068;2023-04-19T07:26:34;101366.63;;;6.90;50.98
58471;BME280;44258;51.288;12.068;2023-04-19T07:29:01;101369.25;;;6.92;52.08
58471;BME280;44258;51.288;12.068;2023-04-19T07:31:28;101374.03;;;6.79;50.81
58471;BME280;44258;51.288;12.068;2023-04-19T07:33:55;101372.22;;;7.17;51.60
58471;BME280;44258;51.288;12.068;2023-04-19T07:36:22;101365.94;;;7.18;52.60
58471;BME280;44258;51.288;12.068;2023-04-19T07:38:48;101370.94;;;7.65;51.09
58471;BME280;44258;51.288;12.068;2023-04-19T07:41:16;101363.97;;;8.23;49.95
58471;BME280;44258;51.288;12.068;2023-04-19T07:43:43;101367.50;;;8.24;49.55
58471;BME280;44258;51.288;12.068;2023-04-19T07:46:11;101365.81;;;6.87;51.04
58471;BME280;44258;51.288;12.068;2023-04-19T07:48:40;101358.91;;;7.48;51.74
58471;BME280;44258;51.288;12.068;2023-04-19T07:51:08;101361.00;;;8.03;50.43
58471;BME280;44258;51.288;12.068;2023-04-19T07:53:35;101352.84;;;7.74;49.87
58471;BME280;44258;51.288;12.068;2023-04-19T07:56:02;101367.19;;;7.72;50.15
58471;BME280;44258;51.288;12.068;2023-04-19T07:58:30;101358.03;;;7.13;51.03
58471;BME280;44258;51.288;12.068;2023-04-19T08:00:57;101358.53;;;6.93;52.22
58471;BME280;44258;51.288;12.068;2023-04-19T08:03:29;101358.31;;;7.70;52.28
58471;BME280;44258;51.288;12.068;2023-04-19T08:05:56;101349.16;;;7.80;50.94
58471;BME280;44258;51.288;12.068;2023-04-19T08:08:23;101348.16;;;8.44;50.08
58471;BME280;44258;51.288;12.068;2023-04-19T08:10:50;101347.97;;;8.20;50.23
58471;BME280;44258;51.288;12.068;2023-04-19T08:13:19;101352.16;;;8.59;49.33
58471;BME280;44258;51.288;12.068;2023-04-19T08:15:47;101352.94;;;8.32;48.94
58471;BME280;44258;51.288;12.068;2023-04-19T08:18:14;101339.38;;;8.67;48.89
58471;BME280;44258;51.288;12.068;2023-04-19T08:20:41;101351.63;;;8.76;48.63
58471;BME280;44258;51.288;12.068;2023-04-19T08:23:08;101352.72;;;8.40;48.46
58471;BME280;44258;51.288;12.068;2023-04-19T08:25:37;101336.88;;;8.89;49.40
58471;BME280;44258;51.288;12.068;2023-04-19T08:28:06;101351.97;;;8.91;47.66
58471;BME280;44258;51.288;12.068;2023-04-19T08:30:33;101344.78;;;8.65;47.50
58471;BME280;44258;51.288;12.068;2023-04-19T08:33:07;101347.84;;;8.53;48.93
58471;BME280;44258;51.288;12.068;2023-04-19T08:35:37;101348.88;;;8.49;47.82
58471;BME280;44258;51.288;12.068;2023-04-19T08:38:05;101350.66;;;8.50;47.66
58471;BME280;44258;51.288;12.068;2023-04-19T08:40:32;101342.16;;;8.36;47.43
58471;BME280;44258;51.288;12.068;2023-04-19T08:43:04;101333.16;;;8.66;48.40
58471;BME280;44258;51.288;12.068;2023-04-19T08:45:32;101334.00;;;8.67;47.96
58471;BME280;44258;51.288;12.068;2023-04-19T08:48:00;101316.44;;;9.11;46.73
58471;BME280;44258;51.288;12.068;2023-04-19T08:50:29;101327.13;;;9.40;47.67
58471;BME280;44258;51.288;12.068;2023-04-19T08:52:57;101316.03;;;9.24;46.17
58471;BME280;44258;51.288;12.068;2023-04-19T08:55:24;101325.94;;;9.48;46.60
58471;BME280;44258;51.288;12.068;2023-04-19T08:57:51;101324.28;;;9.18;46.44
58471;BME280;44258;51.288;12.068;2023-04-19T09:00:19;101320.22;;;9.32;47.01
58471;BME280;44258;51.288;12.068;2023-04-19T09:02:54;101316.22;;;9.18;47.92
58471;BME280;44258;51.288;12.068;2023-04-19T09:05:22;101312.84;;;9.38;46.83
58471;BME280;44258;51.288;12.068;2023-04-19T09:07:51;101306.91;;;9.03;47.14
58471;BME280;44258;51.288;12.068;2023-04-19T09:10:18;101294.84;;;9.43;48.60
58471;BME280;44258;51.288;12.068;2023-04-19T09:12:59;101300.94;;;8.94;46.75
58471;BME280;44258;51.288;12.068;2023-04-19T09:15:36;101288.47;;;9.69;47.61
58471;BME280;44258;51.288;12.068;2023-04-19T09:18:04;101300.16;;;9.91;47.31
58471;BME280;44258;51.288;12.068;2023-04-19T09:20:37;101287.91;;;9.84;46.11
58471;BME280;44258;51.288;12.068;2023-04-19T09:23:06;101282.81;;;9.77;45.29
58471;BME280;44258;51.288;12.068;2023-04-19T09:25:33;101280.72;;;9.85;45.77
58471;BME280;44258;51.288;12.068;2023-04-19T09:28:13;101270.25;;;10.24;45.24
58471;BME280;44258;51.288;12.068;2023-04-19T09:30:40;101269.50;;;10.21;44.34
58471;BME280;44258;51.288;12.068;2023-04-19T09:33:07;101264.66;;;9.34;46.44
58471;BME280;44258;51.288;12.068;2023-04-19T09:35:44;101263.28;;;9.97;45.32
58471;BME280;44258;51.288;12.068;2023-04-19T09:38:14;101254.72;;;10.09;44.54
58471;BME280;44258;51.288;12.068;2023-04-19T09:40:42;101263.72;;;9.61;44.50
58471;BME280;44258;51.288;12.068;2023-04-19T09:43:09;101252.75;;;9.43;45.37
58471;BME280;44258;51.288;12.068;2023-04-19T09:45:39;101254.91;;;10.04;44.76
58471;BME280;44258;51.288;12.068;2023-04-19T09:48:07;101252.47;;;10.64;43.83
58471;BME280;44258;51.288;12.068;2023-04-19T09:50:34;101241.50;;;10.26;43.62
58471;BME280;44258;51.288;12.068;2023-04-19T09:53:02;101233.91;;;9.92;44.81
58471;BME280;44258;51.288;12.068;2023-04-19T09:55:30;101236.34;;;10.42;44.56
58471;BME280;44258;51.288;12.068;2023-04-19T09:57:57;101222.69;;;11.11;43.18
58471;BME280;44258;51.288;12.068;2023-04-19T10:00:24;101229.94;;;10.24;43.92
58471;BME280;44258;51.288;12.068;2023-04-19T10:02:51;101214.63;;;11.11;41.58
58471;BME280;44258;51.288;12.068;2023-04-19T10:05:22;101217.25;;;10.70;40.58
58471;BME280;44258;51.288;12.068;2023-04-19T10:07:49;101240.03;;;10.18;39.51
58471;BME280;44258;51.288;12.068;2023-04-19T10:10:17;101209.63;;;10.39;40.13
58471;BME280;44258;51.288;12.068;2023-04-19T10:12:48;101224.97;;;9.68;40.02
58471;BME280;44258;51.288;12.068;2023-04-19T10:15:22;101213.34;;;10.13;41.25
58471;BME280;44258;51.288;12.068;2023-04-19T10:17:49;101217.06;;;9.87;41.69
58471;BME280;44258;51.288;12.068;2023-04-19T10:20:20;101214.16;;;9.93;39.82
58471;BME280;44258;51.288;12.068;2023-04-19T10:22:49;101213.53;;;9.38;39.12
58471;BME280;44258;51.288;12.068;2023-04-19T10:25:27;101214.50;;;9.37;40.36
58471;BME280;44258;51.288;12.068;2023-04-19T10:27:56;101201.72;;;9.67;39.28
58471;BME280;44258;51.288;12.068;2023-04-19T10:30:24;101191.19;;;10.50;39.06
58471;BME280;44258;51.288;12.068;2023-04-19T10:32:55;101191.25;;;10.71;38.96
58471;BME280;44258;51.288;12.068;2023-04-19T10:35:24;101192.09;;;10.93;37.59
58471;BME280;44258;51.288;12.068;2023-04-19T10:38:08;101186.50;;;11.19;38.13
58471;BME280;44258;51.288;12.068;2023-04-19T10:40:57;101180.16;;;10.36;37.75
58471;BME280;44258;51.288;12.068;2023-04-19T10:43:27;101174.66;;;10.82;37.87
58471;BME280;44258;51.288;12.068;2023-04-19T10:45:58;101166.25;;;10.69;38.60
58471;BME280;44258;51.288;12.068;2023-04-19T10:48:37;101169.25;;;10.61;38.50
58471;BME280;44258;51.288;12.068;2023-04-19T10:51:13;101155.84;;;10.82;39.27
58471;BME280;44258;51.288;12.068;2023-04-19T10:53:55;101155.59;;;10.66;40.22
58471;BME280;44258;51.288;12.068;2023-04-19T10:56:56;101154.25;;;10.76;37.95
58471;BME280;44258;51.288;12.068;2023-04-19T10:59:25;101151.00;;;10.47;37.87
58471;BME280;44258;51.288;12.068;2023-04-19T11:01:54;101140.84;;;10.54;39.20
58471;BME280;44258;51.288;12.068;2023-04-19T11:04:23;101140.84;;;9.89;39.27
58471;BME280;44258;51.288;12.068;2023-04-19T11:07:09;101139.75;;;10.80;39.60
58471;BME280;44258;51.288;12.068;2023-04-19T11:09:37;101133.22;;;10.65;37.87
58471;BME280;44258;51.288;12.068;2023-04-19T11:12:05;101125.50;;;11.18;37.35
58471;BME280;44258;51.288;12.068;2023-04-19T11:14:38;101118.16;;;11.21;35.79
58471;BME280;44258;51.288;12.068;2023-04-19T11:17:14;101121.19;;;11.53;35.24
58471;BME280;44258;51.288;12.068;2023-04-19T11:19:42;101121.69;;;11.42;36.14
58471;BME280;44258;51.288;12.068;2023-04-19T11:22:09;101106.63;;;11.57;35.70
58471;BME280;44258;51.288;12.068;2023-04-19T11:24:44;101105.03;;;11.34;36.21
58471;BME280;44258;51.288;12.068;2023-04-19T11:27:12;101110.09;;;10.61;36.82
58471;BME280;44258;51.288;12.068;2023-04-19T11:29:40;101111.81;;;10.42;36.24
58471;BME280;44258;51.288;12.068;2023-04-19T11:32:06;101108.91;;;10.26;37.32
58471;BME280;44258;51.288;12.068;2023-04-19T11:34:37;101105.50;;;10.63;38.76
58471;BME280;44258;51.288;12.068;2023-04-19T11:37:04;101101.75;;;10.04;37.33
58471;BME280;44258;51.288;12.068;2023-04-19T11:39:30;101095.47;;;10.26;37.82
58471;BME280;44258;51.288;12.068;2023-04-19T11:42:00;101093.78;;;10.44;37.99
58471;BME280;44258;51.288;12.068;2023-04-19T11:44:27;101100.13;;;10.43;36.04
58471;BME280;44258;51.288;12.068;2023-04-19T11:47:00;101084.00;;;11.42;37.20
58471;BME280;44258;51.288;12.068;2023-04-19T11:49:28;101096.28;;;11.29;36.12
58471;BME280;44258;51.288;12.068;2023-04-19T11:51:56;101077.00;;;10.80;35.63
58471;BME280;44258;51.288;12.068;2023-04-19T11:54:24;101071.81;;;11.14;36.42
58471;BME280;44258;51.288;12.068;2023-04-19T11:57:01;101069.72;;;11.40;36.72
58471;BME280;44258;51.288;12.068;2023-04-19T11:59:30;101076.25;;;12.09;37.92
58471;BME280;44258;51.288;12.068;2023-04-19T12:02:07;101073.31;;;10.82;37.02
58471;BME280;44258;51.288;12.068;2023-04-19T12:04:35;101063.19;;;10.46;38.31
58471;BME280;44258;51.288;12.068;2023-04-19T12:07:02;101061.53;;;10.64;38.40
58471;BME280;44258;51.288;12.068;2023-04-19T12:09:32;101060.91;;;11.18;38.05
58471;BME280;44258;51.288;12.068;2023-04-19T12:11:59;101063.97;;;11.29;36.18
58471;BME280;44258;51.288;12.068;2023-04-19T12:14:26;101063.53;;;11.57;36.85
58471;BME280;44258;51.288;12.068;2023-04-19T12:17:04;101063.94;;;11.67;37.00
58471;BME280;44258;51.288;12.068;2023-04-19T12:19:42;101057.91;;;10.65;37.68
58471;BME280;44258;51.288;12.068;2023-04-19T12:22:10;101062.09;;;11.12;37.73
58471;BME280;44258;51.288;12.068;2023-04-19T12:24:37;101045.03;;;10.72;37.70
58471;BME280;44258;51.288;12.068;2023-04-19T12:27:05;101054.88;;;10.52;38.17
58471;BME280;44258;51.288;12.068;2023-04-19T12:29:33;101058.72;;;9.62;39.38
58471;BME280;44258;51.288;12.068;2023-04-19T12:32:03;101051.34;;;9.89;39.36
58471;BME280;44258;51.288;12.068;2023-04-19T12:34:30;101046.81;;;9.89;39.46
58471;BME280;44258;51.288;12.068;2023-04-19T12:37:01;101037.06;;;10.50;40.02
58471;BME280;44258;51.288;12.068;2023-04-19T12:39:28;101031.97;;;10.44;39.44
58471;BME280;44258;51.288;12.068;2023-04-19T12:41:55;101024.41;;;10.52;40.24
58471;BME280;44258;51.288;12.068;2023-04-19T12:44:22;101023.88;;;10.44;38.50
58471;BME280;44258;51.288;12.068;2023-04-19T12:46:48;101019.56;;;11.38;39.02
58471;BME280;44258;51.288;12.068;2023-04-19T12:49:17;101023.50;;;11.11;38.02
58471;BME280;44258;51.288;12.068;2023-04-19T12:51:44;101025.41;;;10.90;38.22
58471;BME280;44258;51.288;12.068;2023-04-19T12:54:16;101021.88;;;10.49;38.02